sensor_id;sensor_type;location;lat;lon;timestamp;pressure;altitude;pressure_sealevel;temperature;humidity
58534;BME280;44109;52.398;7.024;2023-07-13T00:02:25;101117.72;;;16.93;100.00
58534;BME280;44109;52.398;7.024;2023-07-13T00:04:53;101107.72;;;16.96;100.00
58534;BME280;44109;52.398;7.024;2023-07-13T00:07:21;101104.13;;;16.95;100.00
58534;BME280;44109;52.398;7.024;2023-07-13T00:09:49;101109.66;;;17.03;100.00
58534;BME280;44109;52.398;7.024;2023-07-13T00:12:24;101113.69;;;16.98;100.00
58534;BME280;44109;52.398;7.024;2023-07-13T00:14:56;101113.75;;;16.80;100.00
58534;BME280;44109;52.398;7.024;2023-07-13T00:17:27;101108.97;;;16.77;100.00
58534;BME280;44109;52.398;7.024;2023-07-13T00:19:56;101108.97;;;16.77;100.00
58534;BME280;44109;52.398;7.024;2023-07-13T00:22:24;101110.94;;;16.80;100.00
58534;BME280;44109;52.398;7.024;2023-07-13T00:24:52;101111.78;;;16.77;100.00
58534;BME280;44109;52.398;7.024;2023-07-13T00:27:24;101116.56;;;16.84;100.00
58534;BME280;44109;52.398;7.024;2023-07-13T00:29:52;101113.31;;;16.96;100.00
58534;BME280;44109;52.398;7.024;2023-07-13T00:32:20;101110.88;;;16.98;100.00
58534;BME280;44109;52.398;7.024;2023-07-13T00:34:48;101105.31;;;16.91;100.00
58534;BME280;44109;52.398;7.024;2023-07-13T00:37:15;101112.94;;;16.87;100.00
58534;BME280;44109;52.398;7.024;2023-07-13T00:39:43;101114.53;;;16.84;100.00
58534;BME280;44109;52.398;7.024;2023-07-13T00:42:11;101118.56;;;16.87;100.00
58534;BME280;44109;52.398;7.024;2023-07-13T00:44:40;101110.56;;;16.85;100.00
58534;BME280;44109;52.398;7.024;2023-07-13T00:47:07;101110.19;;;16.76;100.00
58534;BME280;44109;52.398;7.024;2023-07-13T00:49:36;101117.75;;;16.86;100.00
58534;BME280;44109;52.398;7.024;2023-07-13T00:52:07;101111.31;;;16.89;100.00
58534;BME280;44109;52.398;7.024;2023-07-13T00:54:39;101112.56;;;16.81;100.00
58534;BME280;44109;52.398;7.024;2023-07-13T00:57:12;101119.00;;;16.67;100.00
58534;BME280;44109;52.398;7.024;2023-07-13T00:59:46;101117.34;;;16.84;100.00
58534;BME280;44109;52.398;7.024;2023-07-13T01:02:16;101117.34;;;16.91;100.00
58534;BME280;44109;52.398;7.024;2023-07-13T01:04:44;101119.72;;;16.89;100.00
58534;BME280;44109;52.398;7.024;2023-07-13T01:07:12;101113.75;;;16.91;100.00
58534;BME280;44109;52.398;7.024;2023-07-13T01:09:41;101116.53;;;16.94;100.00
58534;BME280;44109;52.398;7.024;2023-07-13T01:12:09;101122.53;;;16.89;100.00
58534;BME280;44109;52.398;7.024;2023-07-13T01:14:37;101114.53;;;16.95;100.00
58534;BME280;44109;52.398;7.024;2023-07-13T01:17:08;101117.28;;;16.98;100.00
58534;BME280;44109;52.398;7.024;2023-07-13T01:19:39;101131.28;;;17.02;100.00
58534;BME280;44109;52.398;7.024;2023-07-13T01:22:12;101120.09;;;17.02;100.00
58534;BME280;44109;52.398;7.024;2023-07-13T01:24:44;101130.09;;;17.03;100.00
58534;BME280;44109;52.398;7.024;2023-07-13T01:27:16;101124.91;;;17.02;100.00
58534;BME280;44109;52.398;7.024;2023-07-13T01:29:47;101125.69;;;17.02;100.00
58534;BME280;44109;52.398;7.024;2023-07-13T01:32:17;101124.88;;;17.05;100.00
58534;BME280;44109;52.398;7.024;2023-07-13T01:34:50;101134.09;;;17.06;100.00
58534;BME280;44109;52.398;7.024;2023-07-13T01:37:22;101121.28;;;17.05;100.00
58534;BME280;44109;52.398;7.024;2023-07-13T01:39:50;101121.66;;;17.07;100.00
58534;BME280;44109;52.398;7.024;2023-07-13T01:42:18;101118.50;;;17.05;100.00
58534;BME280;44109;52.398;7.024;2023-07-13T01:44:45;101127.69;;;17.05;100.00
58534;BME280;44109;52.398;7.024;2023-07-13T01:47:13;101117.66;;;17.08;100.00
58534;BME280;44109;52.398;7.024;2023-07-13T01:49:40;101117.66;;;17.08;100.00
58534;BME280;44109;52.398;7.024;2023-07-13T01:52:08;101124.09;;;17.05;100.00
58534;BME280;44109;52.398;7.024;2023-07-13T01:54:37;101127.31;;;16.99;100.00
58534;BME280;44109;52.398;7.024;2023-07-13T01:57:05;101131.34;;;16.95;100.00
58534;BME280;44109;52.398;7.024;2023-07-13T01:59:32;101124.19;;;16.76;100.00
58534;BME280;44109;52.398;7.024;2023-07-13T02:02:00;101128.19;;;16.79;100.00
58534;BME280;44109;52.398;7.024;2023-07-13T02:04:27;101119.41;;;16.73;100.00
58534;BME280;44109;52.398;7.024;2023-07-13T02:06:55;101126.56;;;16.70;100.00
58534;BME280;44109;52.398;7.024;2023-07-13T02:09:22;101119.78;;;16.68;100.00
58534;BME280;44109;52.398;7.024;2023-07-13T02:11:51;101115.81;;;16.72;100.00
58534;BME280;44109;52.398;7.024;2023-07-13T02:14:19;101122.56;;;16.75;100.00
58534;BME280;44109;52.398;7.024;2023-07-13T02:16:47;101111.00;;;16.73;100.00
58534;BME280;44109;52.398;7.024;2023-07-13T02:19:14;101113.38;;;16.78;100.00
58534;BME280;44109;52.398;7.024;2023-07-13T02:21:42;101124.97;;;16.80;100.00
58534;BME280;44109;52.398;7.024;2023-07-13T02:24:10;101123.78;;;16.74;100.00
58534;BME280;44109;52.398;7.024;2023-07-13T02:26:43;101128.97;;;16.79;100.00
58534;BME280;44109;52.398;7.024;2023-07-13T02:29:12;101123.75;;;16.70;100.00
58534;BME280;44109;52.398;7.024;2023-07-13T02:31:40;101126.59;;;16.56;100.00
58534;BME280;44109;52.398;7.024;2023-07-13T02:34:07;101130.59;;;16.59;100.00
58534;BME280;44109;52.398;7.024;2023-07-13T02:36:35;101119.41;;;16.59;100.00
58534;BME280;44109;52.398;7.024;2023-07-13T02:39:04;101127.38;;;16.64;100.00
58534;BME280;44109;52.398;7.024;2023-07-13T02:41:32;101131.81;;;16.43;100.00
58534;BME280;44109;52.398;7.024;2023-07-13T02:44:00;101129.84;;;16.40;100.00
58534;BME280;44109;52.398;7.024;2023-07-13T02:46:31;101131.44;;;16.45;100.00
58534;BME280;44109;52.398;7.024;2023-07-13T02:49:00;101131.41;;;16.52;100.00
58534;BME280;44109;52.398;7.024;2023-07-13T02:51:27;101125.00;;;16.52;100.00
58534;BME280;44109;52.398;7.024;2023-07-13T02:53:55;101127.81;;;16.37;100.00
58534;BME280;44109;52.398;7.024;2023-07-13T02:56:25;101128.22;;;16.46;100.00
58534;BME280;44109;52.398;7.024;2023-07-13T02:58:54;101128.25;;;16.32;100.00
58534;BME280;44109;52.398;7.024;2023-07-13T03:01:22;101128.22;;;16.25;100.00
58534;BME280;44109;52.398;7.024;2023-07-13T03:03:52;101133.03;;;16.32;100.00
58534;BME280;44109;52.398;7.024;2023-07-13T03:06:20;101130.63;;;16.34;100.00
58534;BME280;44109;52.398;7.024;2023-07-13T03:08:48;101130.63;;;16.44;100.00
58534;BME280;44109;52.398;7.024;2023-07-13T03:11:18;101135.03;;;16.31;100.00
58534;BME280;44109;52.398;7.024;2023-07-13T03:13:47;101137.81;;;16.35;100.00
58534;BME280;44109;52.398;7.024;2023-07-13T03:16:16;101126.63;;;16.49;100.00
58534;BME280;44109;52.398;7.024;2023-07-13T03:18:44;101128.66;;;16.31;100.00
58534;BME280;44109;52.398;7.024;2023-07-13T03:21:14;101133.44;;;16.44;100.00
58534;BME280;44109;52.398;7.024;2023-07-13T03:23:43;101130.59;;;16.48;100.00
58534;BME280;44109;52.398;7.024;2023-07-13T03:26:13;101145.03;;;16.54;100.00
58534;BME280;44109;52.398;7.024;2023-07-13T03:28:44;101143.41;;;16.53;100.00
58534;BME280;44109;52.398;7.024;2023-07-13T03:31:16;101145.81;;;16.51;100.00
58534;BME280;44109;52.398;7.024;2023-07-13T03:33:46;101138.63;;;16.46;100.00
58534;BME280;44109;52.398;7.024;2023-07-13T03:36:18;101144.22;;;16.46;100.00
58534;BME280;44109;52.398;7.024;2023-07-13T03:38:48;101149.00;;;16.60;100.00
58534;BME280;44109;52.398;7.024;2023-07-13T03:41:17;101147.38;;;16.69;100.00
58534;BME280;44109;52.398;7.024;2023-07-13T03:43:45;101150.22;;;16.52;100.00
58534;BME280;44109;52.398;7.024;2023-07-13T03:46:14;101142.59;;;16.48;100.00
58534;BME280;44109;52.398;7.024;2023-07-13T03:48:44;101154.59;;;16.67;100.00
58534;BME280;44109;52.398;7.024;2023-07-13T03:51:16;101167.00;;;16.52;100.00
58534;BME280;44109;52.398;7.024;2023-07-13T03:53:46;101161.41;;;16.55;100.00
58534;BME280;44109;52.398;7.024;2023-07-13T03:56:14;101161.03;;;16.49;100.00
58534;BME280;44109;52.398;7.024;2023-07-13T03:58:45;101157.81;;;16.51;100.00
58534;BME280;44109;52.398;7.024;2023-07-13T04:01:15;101165.44;;;16.36;100.00
58534;BME280;44109;52.398;7.024;2023-07-13T04:03:45;101159.81;;;16.51;100.00
58534;BME280;44109;52.398;7.024;2023-07-13T04:06:17;101154.59;;;16.53;100.00
58534;BME280;44109;52.398;7.024;2023-07-13T04:08:48;101165.00;;;16.56;100.00
58534;BME280;44109;52.398;7.024;2023-07-13T04:11:17;101181.81;;;16.56;100.00
58534;BME280;44109;52.398;7.024;2023-07-13T04:13:46;101171.41;;;16.67;100.00
58534;BME280;44109;52.398;7.024;2023-07-13T04:16:15;101171.78;;;16.62;100.00
58534;BME280;44109;52.398;7.024;2023-07-13T04:18:44;101173.00;;;16.57;100.00
58534;BME280;44109;52.398;7.024;2023-07-13T04:21:13;101170.22;;;16.50;100.00
58534;BME280;44109;52.398;7.024;2023-07-13T04:23:43;101173.41;;;16.48;100.00
58534;BME280;44109;52.398;7.024;2023-07-13T04:26:10;101178.63;;;16.39;100.00
58534;BME280;44109;52.398;7.024;2023-07-13T04:28:38;101178.22;;;16.52;100.00
58534;BME280;44109;52.398;7.024;2023-07-13T04:31:06;101177.81;;;16.57;100.00
58534;BME280;44109;52.398;7.024;2023-07-13T04:33:33;101184.63;;;16.56;100.00
58534;BME280;44109;52.398;7.024;2023-07-13T04:36:01;101187.41;;;16.48;100.00
58534;BME280;44109;52.398;7.024;2023-07-13T04:38:30;101185.00;;;16.65;100.00
58534;BME280;44109;52.398;7.024;2023-07-13T04:41:02;101175.41;;;16.52;100.00
58534;BME280;44109;52.398;7.024;2023-07-13T04:43:32;101184.63;;;16.77;100.00
58534;BME280;44109;52.398;7.024;2023-07-13T04:46:03;101191.03;;;16.67;100.00
58534;BME280;44109;52.398;7.024;2023-07-13T04:48:32;101192.59;;;16.61;100.00
58534;BME280;44109;52.398;7.024;2023-07-13T04:51:01;101191.03;;;16.67;100.00
58534;BME280;44109;52.398;7.024;2023-07-13T04:53:30;101189.81;;;16.68;100.00
58534;BME280;44109;52.398;7.024;2023-07-13T04:56:00;101187.41;;;16.56;100.00
58534;BME280;44109;52.398;7.024;2023-07-13T04:58:28;101196.22;;;16.65;100.00
58534;BME280;44109;52.398;7.024;2023-07-13T05:00:59;101205.81;;;16.57;100.00
58534;BME280;44109;52.398;7.024;2023-07-13T05:03:28;101203.00;;;16.71;100.00
58534;BME280;44109;52.398;7.024;2023-07-13T05:05:56;101198.19;;;16.89;100.00
58534;BME280;44109;52.398;7.024;2023-07-13T05:08:25;101212.53;;;17.27;100.00
58534;BME280;44109;52.398;7.024;2023-07-13T05:10:53;101209.50;;;17.70;100.00
58534;BME280;44109;52.398;7.024;2023-07-13T05:13:22;101202.28;;;17.80;100.00
58534;BME280;44109;52.398;7.024;2023-07-13T05:15:55;101185.84;;;17.78;100.00
58534;BME280;44109;52.398;7.024;2023-07-13T05:18:24;101201.25;;;18.15;100.00
58534;BME280;44109;52.398;7.024;2023-07-13T05:21:00;101203.91;;;18.33;100.00
58534;BME280;44109;52.398;7.024;2023-07-13T05:23:30;101215.25;;;18.70;100.00
58534;BME280;44109;52.398;7.024;2023-07-13T05:25:59;101205.81;;;18.91;100.00
58534;BME280;44109;52.398;7.024;2023-07-13T05:28:30;101211.94;;;18.83;100.00
58534;BME280;44109;52.398;7.024;2023-07-13T05:30:59;101217.13;;;18.84;100.00
58534;BME280;44109;52.398;7.024;2023-07-13T05:33:26;101206.94;;;18.97;100.00
58534;BME280;44109;52.398;7.024;2023-07-13T05:35:54;101213.00;;;19.30;100.00
58534;BME280;44109;52.398;7.024;2023-07-13T05:38:22;101215.44;;;19.28;100.00
58534;BME280;44109;52.398;7.024;2023-07-13T05:40:50;101208.72;;;19.52;100.00
58534;BME280;44109;52.398;7.024;2023-07-13T05:43:18;101217.72;;;20.01;100.00
58534;BME280;44109;52.398;7.024;2023-07-13T05:45:47;101218.03;;;19.80;100.00
58534;BME280;44109;52.398;7.024;2023-07-13T05:48:14;101212.00;;;20.09;100.00
58534;BME280;44109;52.398;7.024;2023-07-13T05:50:42;101220.66;;;20.21;100.00
58534;BME280;44109;52.398;7.024;2023-07-13T05:53:10;101217.41;;;20.23;100.00
58534;BME280;44109;52.398;7.024;2023-07-13T05:55:41;101218.19;;;20.74;100.00
58534;BME280;44109;52.398;7.024;2023-07-13T05:58:09;101216.59;;;20.49;100.00
58534;BME280;44109;52.398;7.024;2023-07-13T06:00:38;101215.63;;;20.33;100.00
58534;BME280;44109;52.398;7.024;2023-07-13T06:03:07;101218.66;;;20.45;100.00
58534;BME280;44109;52.398;7.024;2023-07-13T06:05:35;101229.19;;;20.88;100.00
58534;BME280;44109;52.398;7.024;2023-07-13T06:08:06;101227.50;;;21.14;100.00
58534;BME280;44109;52.398;7.024;2023-07-13T06:10:35;101230.69;;;21.16;100.00
58534;BME280;44109;52.398;7.024;2023-07-13T06:13:03;101234.19;;;21.64;100.00
58534;BME280;44109;52.398;7.024;2023-07-13T06:15:31;101240.13;;;21.69;100.00
58534;BME280;44109;52.398;7.024;2023-07-13T06:17:58;101241.94;;;22.16;97.26
58534;BME280;44109;52.398;7.024;2023-07-13T06:20:27;101246.03;;;21.75;99.73
58534;BME280;44109;52.398;7.024;2023-07-13T06:22:55;101247.28;;;21.74;98.63
58534;BME280;44109;52.398;7.024;2023-07-13T06:25:23;101252.72;;;21.65;100.00
58534;BME280;44109;52.398;7.024;2023-07-13T06:27:50;101262.38;;;22.03;99.68
58534;BME280;44109;52.398;7.024;2023-07-13T06:30:18;101256.28;;;22.58;98.91
58534;BME280;44109;52.398;7.024;2023-07-13T06:32:45;101255.47;;;22.57;93.19
58534;BME280;44109;52.398;7.024;2023-07-13T06:35:13;101253.47;;;23.19;91.58
58534;BME280;44109;52.398;7.024;2023-07-13T06:37:42;101263.84;;;23.10;89.15
58534;BME280;44109;52.398;7.024;2023-07-13T06:40:10;101269.53;;;22.77;95.02
58534;BME280;44109;52.398;7.024;2023-07-13T06:42:38;101278.00;;;22.44;92.94
58534;BME280;44109;52.398;7.024;2023-07-13T06:45:06;101270.09;;;22.19;96.00
58534;BME280;44109;52.398;7.024;2023-07-13T06:47:35;101276.94;;;22.71;94.26
58534;BME280;44109;52.398;7.024;2023-07-13T06:50:02;101287.34;;;22.25;96.30
58534;BME280;44109;52.398;7.024;2023-07-13T06:52:30;101277.53;;;22.29;97.51
58534;BME280;44109;52.398;7.024;2023-07-13T06:54:59;101276.38;;;21.71;98.42
58534;BME280;44109;52.398;7.024;2023-07-13T06:57:27;101288.00;;;21.76;100.00
58534;BME280;44109;52.398;7.024;2023-07-13T06:59:54;101293.84;;;21.66;100.00
58534;BME280;44109;52.398;7.024;2023-07-13T07:02:22;101281.97;;;21.94;100.00
58534;BME280;44109;52.398;7.024;2023-07-13T07:04:50;101288.44;;;22.31;99.23
58534;BME280;44109;52.398;7.024;2023-07-13T07:07:17;101280.91;;;23.06;97.45
58534;BME280;44109;52.398;7.024;2023-07-13T07:09:45;101283.66;;;23.10;90.87
58534;BME280;44109;52.398;7.024;2023-07-13T07:12:14;101282.78;;;22.96;92.42
58534;BME280;44109;52.398;7.024;2023-07-13T07:14:42;101283.88;;;23.32;94.07
58534;BME280;44109;52.398;7.024;2023-07-13T07:17:09;101290.56;;;24.34;88.68
58534;BME280;44109;52.398;7.024;2023-07-13T07:19:37;101299.78;;;24.64;83.42
58534;BME280;44109;52.398;7.024;2023-07-13T07:22:05;101300.00;;;24.57;82.22
58534;BME280;44109;52.398;7.024;2023-07-13T07:24:32;101297.41;;;24.49;85.40
58534;BME280;44109;52.398;7.024;2023-07-13T07:27:00;101292.28;;;23.35;85.22
58534;BME280;44109;52.398;7.024;2023-07-13T07:29:29;101297.97;;;22.86;91.04
58534;BME280;44109;52.398;7.024;2023-07-13T07:31:58;101290.81;;;22.65;91.41
58534;BME280;44109;52.398;7.024;2023-07-13T07:34:26;101302.44;;;22.18;99.96
58534;BME280;44109;52.398;7.024;2023-07-13T07:36:54;101296.75;;;22.54;100.00
58534;BME280;44109;52.398;7.024;2023-07-13T07:39:22;101302.75;;;22.73;100.00
58534;BME280;44109;52.398;7.024;2023-07-13T07:41:49;101295.34;;;23.41;97.44
58534;BME280;44109;52.398;7.024;2023-07-13T07:44:17;101299.91;;;23.51;98.38
58534;BME280;44109;52.398;7.024;2023-07-13T07:46:46;101303.63;;;22.70;96.22
58534;BME280;44109;52.398;7.024;2023-07-13T07:49:14;101301.06;;;22.43;98.24
58534;BME280;44109;52.398;7.024;2023-07-13T07:51:42;101308.72;;;22.26;100.00
58534;BME280;44109;52.398;7.024;2023-07-13T07:54:09;101303.56;;;21.85;100.00
58534;BME280;44109;52.398;7.024;2023-07-13T07:56:37;101298.44;;;22.16;100.00
58534;BME280;44109;52.398;7.024;2023-07-13T07:59:05;101302.38;;;22.22;100.00
58534;BME280;44109;52.398;7.024;2023-07-13T08:01:32;101304.84;;;22.52;100.00
58534;BME280;44109;52.398;7.024;2023-07-13T08:04:01;101302.91;;;22.66;100.00
58534;BME280;44109;52.398;7.024;2023-07-13T08:06:31;101299.72;;;22.11;100.00
58534;BME280;44109;52.398;7.024;2023-07-13T08:08:59;101294.47;;;22.13;100.00
58534;BME280;44109;52.398;7.024;2023-07-13T08:11:27;101301.16;;;22.03;100.00
58534;BME280;44109;52.398;7.024;2023-07-13T08:13:55;101300.94;;;22.14;100.00
58534;BME280;44109;52.398;7.024;2023-07-13T08:16:23;101296.75;;;21.82;100.00
58534;BME280;44109;52.398;7.024;2023-07-13T08:18:50;101295.13;;;22.37;100.00
58534;BME280;44109;52.398;7.024;2023-07-13T08:21:19;101272.34;;;22.61;100.00
58534;BME280;44109;52.398;7.024;2023-07-13T08:23:48;101294.97;;;22.44;100.00
58534;BME280;44109;52.398;7.024;2023-07-13T08:26:15;101295.59;;;22.68;100.00
58534;BME280;44109;52.398;7.024;2023-07-13T08:28:43;101290.81;;;22.82;97.37
58534;BME280;44109;52.398;7.024;2023-07-13T08:31:11;101290.91;;;22.78;100.00
58534;BME280;44109;52.398;7.024;2023-07-13T08:33:38;101299.91;;;22.57;99.40
58534;BME280;44109;52.398;7.024;2023-07-13T08:36:07;101296.22;;;21.87;100.00
58534;BME280;44109;52.398;7.024;2023-07-13T08:38:36;101298.69;;;22.41;100.00
58534;BME280;44109;52.398;7.024;2023-07-13T08:41:11;101297.97;;;22.37;100.00
58534;BME280;44109;52.398;7.024;2023-07-13T08:43:41;101301.16;;;22.56;100.00
58534;BME280;44109;52.398;7.024;2023-07-13T08:46:15;101307.69;;;22.36;100.00
58534;BME280;44109;52.398;7.024;2023-07-13T08:48:51;101299.00;;;22.27;100.00
58534;BME280;44109;52.398;7.024;2023-07-13T08:51:28;101295.56;;;21.99;100.00
58534;BME280;44109;52.398;7.024;2023-07-13T08:54:12;101298.91;;;21.74;100.00
58534;BME280;44109;52.398;7.024;2023-07-13T08:56:46;101292.84;;;21.76;100.00
58534;BME280;44109;52.398;7.024;2023-07-13T08:59:21;101295.53;;;22.19;100.00
58534;BME280;44109;52.398;7.024;2023-07-13T09:02:05;101301.84;;;22.27;100.00
58534;BME280;44109;52.398;7.024;2023-07-13T09:04:47;101291.78;;;22.26;100.00
58534;BME280;44109;52.398;7.024;2023-07-13T09:07:28;101293.78;;;22.25;99.94
58534;BME280;44109;52.398;7.024;2023-07-13T09:10:14;101298.22;;;22.75;100.00
58534;BME280;44109;52.398;7.024;2023-07-13T09:12:59;101304.00;;;22.72;97.47
58534;BME280;44109;52.398;7.024;2023-07-13T09:15:37;101295.03;;;23.22;99.59
58534;BME280;44109;52.398;7.024;2023-07-13T09:18:15;101285.63;;;22.64;93.05
58534;BME280;44109;52.398;7.024;2023-07-13T09:20:49;101290.81;;;23.14;94.65
58534;BME280;44109;52.398;7.024;2023-07-13T09:23:22;101298.69;;;22.74;94.22
58534;BME280;44109;52.398;7.024;2023-07-13T09:26:05;101288.53;;;22.76;95.10
58534;BME280;44109;52.398;7.024;2023-07-13T09:28:38;101292.94;;;22.09;96.33
58534;BME280;44109;52.398;7.024;2023-07-13T09:31:13;101300.94;;;22.14;100.00
58534;BME280;44109;52.398;7.024;2023-07-13T09:33:42;101292.03;;;22.32;100.00
58534;BME280;44109;52.398;7.024;2023-07-13T09:36:19;101291.63;;;22.82;100.00
58534;BME280;44109;52.398;7.024;2023-07-13T09:38:58;101291.22;;;23.29;99.77
58534;BME280;44109;52.398;7.024;2023-07-13T09:41:38;101288.16;;;22.42;96.43
58534;BME280;44109;52.398;7.024;2023-07-13T09:44:14;101297.81;;;23.10;98.85
58534;BME280;44109;52.398;7.024;2023-07-13T09:46:46;101299.84;;;22.93;94.29
58534;BME280;44109;52.398;7.024;2023-07-13T09:49:23;101301.84;;;23.25;95.35
58534;BME280;44109;52.398;7.024;2023-07-13T09:51:58;101298.13;;;23.12;93.16
58534;BME280;44109;52.398;7.024;2023-07-13T09:54:28;101303.81;;;22.63;96.56
58534;BME280;44109;52.398;7.024;2023-07-13T09:56:59;101308.16;;;22.67;94.09
58534;BME280;44109;52.398;7.024;2023-07-13T09:59:30;101303.47;;;23.39;97.29
58534;BME280;44109;52.398;7.024;2023-07-13T10:02:01;101306.75;;;23.37;93.04
58534;BME280;44109;52.398;7.024;2023-07-13T10:04:32;101305.25;;;23.03;91.24
58534;BME280;44109;52.398;7.024;2023-07-13T10:07:05;101302.19;;;23.27;94.96
58534;BME280;44109;52.398;7.024;2023-07-13T10:09:34;101320.59;;;22.70;97.78
58534;BME280;44109;52.398;7.024;2023-07-13T10:12:04;101318.47;;;21.85;100.00
58534;BME280;44109;52.398;7.024;2023-07-13T10:14:42;101327.22;;;21.51;100.00
58534;BME280;44109;52.398;7.024;2023-07-13T10:17:13;101334.38;;;21.12;100.00
58534;BME280;44109;52.398;7.024;2023-07-13T10:19:42;101329.13;;;20.64;100.00
58534;BME280;44109;52.398;7.024;2023-07-13T10:22:20;101327.03;;;20.68;100.00
58534;BME280;44109;52.398;7.024;2023-07-13T10:24:54;101326.66;;;20.66;100.00
58534;BME280;44109;52.398;7.024;2023-07-13T10:27:31;101320.38;;;20.82;100.00
58534;BME280;44109;52.398;7.024;2023-07-13T10:30:09;101326.44;;;21.03;100.00
58534;BME280;44109;52.398;7.024;2023-07-13T10:32:41;101330.84;;;21.05;100.00
58534;BME280;44109;52.398;7.024;2023-07-13T10:35:13;101328.34;;;21.10;100.00
58534;BME280;44109;52.398;7.024;2023-07-13T10:37:48;101326.94;;;21.22;100.00
58534;BME280;44109;52.398;7.024;2023-07-13T10:40:24;101322.75;;;21.07;100.00
58534;BME280;44109;52.398;7.024;2023-07-13T10:43:02;101316.25;;;21.10;100.00
58534;BME280;44109;52.398;7.024;2023-07-13T10:45:34;101318.16;;;20.93;100.00
58534;BME280;44109;52.398;7.024;2023-07-13T10:48:05;101306.94;;;21.13;100.00
58534;BME280;44109;52.398;7.024;2023-07-13T10:50:40;101316.81;;;21.01;100.00
58534;BME280;44109;52.398;7.024;2023-07-13T10:53:19;101320.09;;;20.45;100.00
58534;BME280;44109;52.398;7.024;2023-07-13T10:55:58;101322.66;;;20.36;100.00
58534;BME280;44109;52.398;7.024;2023-07-13T10:58:32;101323.63;;;19.95;100.00
58534;BME280;44109;52.398;7.024;2023-07-13T11:01:06;101319.81;;;20.09;100.00
58534;BME280;44109;52.398;7.024;2023-07-13T11:03:45;101327.69;;;20.21;100.00
58534;BME280;44109;52.398;7.024;2023-07-13T11:06:31;101325.78;;;20.15;100.00
58534;BME280;44109;52.398;7.024;2023-07-13T11:12:25;101355.44;;;19.55;100.00
58534;BME280;44109;52.398;7.024;2023-07-13T11:15:05;101380.59;;;18.79;100.00
58534;BME280;44109;52.398;7.024;2023-07-13T11:17:48;101391.19;;;18.54;100.00
58534;BME280;44109;52.398;7.024;2023-07-13T11:20:23;101397.00;;;18.11;100.00
58534;BME280;44109;52.398;7.024;2023-07-13T11:25:59;101400.81;;;18.52;100.00
58534;BME280;44109;52.398;7.024;2023-07-13T11:28:31;101391.03;;;18.82;100.00
58534;BME280;44109;52.398;7.024;2023-07-13T11:31:14;101393.06;;;18.78;100.00
58534;BME280;44109;52.398;7.024;2023-07-13T11:33:56;101394.88;;;19.02;100.00
58534;BME280;44109;52.398;7.024;2023-07-13T11:36:30;101395.91;;;19.26;100.00
58534;BME280;44109;52.398;7.024;2023-07-13T11:39:05;101398.50;;;19.48;100.00
58534;BME280;44109;52.398;7.024;2023-07-13T11:41:45;101394.34;;;19.67;100.00
58534;BME280;44109;52.398;7.024;2023-07-13T11:44:19;101394.78;;;19.99;100.00
58534;BME280;44109;52.398;7.024;2023-07-13T11:46:51;101388.22;;;20.10;100.00
58534;BME280;44109;52.398;7.024;2023-07-13T11:49:21;101390.13;;;20.47;100.00
58534;BME280;44109;52.398;7.024;2023-07-13T11:51:53;101374.47;;;20.73;100.00
58534;BME280;44109;52.398;7.024;2023-07-13T11:54:25;101366.19;;;21.13;100.00
58534;BME280;44109;52.398;7.024;2023-07-13T11:56:57;101373.03;;;21.12;100.00
58534;BME280;44109;52.398;7.024;2023-07-13T11:59:29;101372.44;;;21.47;100.00
58534;BME280;44109;52.398;7.024;2023-07-13T12:02:00;101366.41;;;21.69;100.00
58534;BME280;44109;52.398;7.024;2023-07-13T12:04:31;101371.75;;;21.63;100.00
58534;BME280;44109;52.398;7.024;2023-07-13T12:07:05;101370.78;;;21.50;100.00
58534;BME280;44109;52.398;7.024;2023-07-13T12:09:35;101360.28;;;21.27;100.00
58534;BME280;44109;52.398;7.024;2023-07-13T12:12:08;101363.63;;;21.22;100.00
58534;BME280;44109;52.398;7.024;2023-07-13T12:14:38;101360.72;;;21.02;100.00
58534;BME280;44109;52.398;7.024;2023-07-13T12:17:13;101384.97;;;20.72;100.00
58534;BME280;44109;52.398;7.024;2023-07-13T12:19:43;101404.28;;;19.75;100.00
58534;BME280;44109;52.398;7.024;2023-07-13T12:22:12;101398.88;;;19.09;100.00
58534;BME280;44109;52.398;7.024;2023-07-13T12:24:41;101394.38;;;19.60;100.00
58534;BME280;44109;52.398;7.024;2023-07-13T12:27:19;101409.91;;;19.34;100.00
58534;BME280;44109;52.398;7.024;2023-07-13T12:29:50;101413.41;;;19.48;100.00
58534;BME280;44109;52.398;7.024;2023-07-13T12:32:24;101417.28;;;20.03;100.00
58534;BME280;44109;52.398;7.024;2023-07-13T12:34:54;101424.09;;;20.36;100.00
58534;BME280;44109;52.398;7.024;2023-07-13T12:37:22;101422.97;;;20.61;100.00
58534;BME280;44109;52.398;7.024;2023-07-13T12:39:51;101435.91;;;20.58;100.00
58534;BME280;44109;52.398;7.024;2023-07-13T12:42:22;101423.25;;;20.97;100.00
58534;BME280;44109;52.398;7.024;2023-07-13T12:44:54;101418.91;;;21.16;100.00
58534;BME280;44109;52.398;7.024;2023-07-13T12:47:28;101418.88;;;20.65;100.00
58534;BME280;44109;52.398;7.024;2023-07-13T12:49:59;101428.31;;;21.09;100.00
58534;BME280;44109;52.398;7.024;2023-07-13T12:52:30;101427.25;;;20.99;100.00
58534;BME280;44109;52.398;7.024;2023-07-13T12:55:04;101449.16;;;20.27;100.00
58534;BME280;44109;52.398;7.024;2023-07-13T12:57:40;101474.09;;;19.46;100.00
58534;BME280;44109;52.398;7.024;2023-07-13T13:00:22;101468.16;;;18.81;100.00
58534;BME280;44109;52.398;7.024;2023-07-13T13:02:56;101472.84;;;18.98;100.00
58534;BME280;44109;52.398;7.024;2023-07-13T13:05:27;101461.38;;;19.31;100.00
58534;BME280;44109;52.398;7.024;2023-07-13T13:07:54;101465.25;;;19.47;100.00